sensor_id;sensor_type;location;lat;lon;timestamp;pressure;altitude;pressure_sealevel;temperature;humidity
10202;BME280;5143;42.584;23.164;2023-02-28T00:00:18;92910.28;;;5.38;100.00
10202;BME280;5143;42.584;23.164;2023-02-28T00:02:45;92914.09;;;5.41;100.00
10202;BME280;5143;42.584;23.164;2023-02-28T00:05:14;92928.53;;;5.47;100.00
10202;BME280;5143;42.584;23.164;2023-02-28T00:07:42;92922.88;;;5.32;100.00
10202;BME280;5143;42.584;23.164;2023-02-28T00:10:10;92925.03;;;5.38;100.00
10202;BME280;5143;42.584;23.164;2023-02-28T00:12:38;92919.63;;;5.38;100.00
10202;BME280;5143;42.584;23.164;2023-02-28T00:15:09;92923.28;;;5.44;100.00
10202;BME280;5143;42.584;23.164;2023-02-28T00:17:37;92934.78;;;5.57;100.00
10202;BME280;5143;42.584;23.164;2023-02-28T00:20:06;92934.84;;;5.66;100.00
10202;BME280;5143;42.584;23.164;2023-02-28T00:22:34;92939.50;;;5.65;100.00
10202;BME280;5143;42.584;23.164;2023-02-28T00:25:00;92925.13;;;5.56;100.00
10202;BME280;5143;42.584;23.164;2023-02-28T00:27:27;92935.97;;;5.56;100.00
10202;BME280;5143;42.584;23.164;2023-02-28T00:29:54;92933.84;;;5.51;100.00
10202;BME280;5143;42.584;23.164;2023-02-28T00:32:22;92938.00;;;5.43;100.00
10202;BME280;5143;42.584;23.164;2023-02-28T00:34:49;92932.19;;;5.31;100.00
10202;BME280;5143;42.584;23.164;2023-02-28T00:37:16;92936.34;;;5.23;100.00
10202;BME280;5143;42.584;23.164;2023-02-28T00:39:42;92937.47;;;5.13;100.00
10202;BME280;5143;42.584;23.164;2023-02-28T00:42:09;92935.56;;;5.01;100.00
10202;BME280;5143;42.584;23.164;2023-02-28T00:44:36;92931.91;;;4.95;100.00
10202;BME280;5143;42.584;23.164;2023-02-28T00:47:03;92938.19;;;4.92;100.00
10202;BME280;5143;42.584;23.164;2023-02-28T00:49:31;92935.41;;;4.83;100.00
10202;BME280;5143;42.584;23.164;2023-02-28T00:51:58;92931.84;;;4.73;100.00
10202;BME280;5143;42.584;23.164;2023-02-28T00:54:25;92931.94;;;4.70;100.00
10202;BME280;5143;42.584;23.164;2023-02-28T00:56:51;92932.81;;;4.67;100.00
10202;BME280;5143;42.584;23.164;2023-02-28T00:59:18;92933.28;;;4.65;100.00
10202;BME280;5143;42.584;23.164;2023-02-28T01:01:46;92932.66;;;4.61;100.00
10202;BME280;5143;42.584;23.164;2023-02-28T01:04:13;92906.22;;;4.65;100.00
10202;BME280;5143;42.584;23.164;2023-02-28T01:06:42;92920.81;;;4.68;100.00
10202;BME280;5143;42.584;23.164;2023-02-28T01:09:08;92924.91;;;4.72;100.00
10202;BME280;5143;42.584;23.164;2023-02-28T01:11:35;92922.78;;;4.67;100.00
10202;BME280;5143;42.584;23.164;2023-02-28T01:14:03;92921.38;;;4.63;100.00
10202;BME280;5143;42.584;23.164;2023-02-28T01:16:30;92909.19;;;4.58;100.00
10202;BME280;5143;42.584;23.164;2023-02-28T01:18:57;92933.59;;;4.67;100.00
10202;BME280;5143;42.584;23.164;2023-02-28T01:21:24;92932.50;;;4.78;100.00
10202;BME280;5143;42.584;23.164;2023-02-28T01:23:56;92926.63;;;4.79;100.00
10202;BME280;5143;42.584;23.164;2023-02-28T01:26:23;92920.91;;;4.77;100.00
10202;BME280;5143;42.584;23.164;2023-02-28T01:28:51;92912.09;;;4.64;100.00
10202;BME280;5143;42.584;23.164;2023-02-28T01:31:20;92921.13;;;4.70;100.00
10202;BME280;5143;42.584;23.164;2023-02-28T01:33:47;92917.03;;;4.65;100.00
10202;BME280;5143;42.584;23.164;2023-02-28T01:36:15;92930.31;;;4.72;100.00
10202;BME280;5143;42.584;23.164;2023-02-28T01:38:43;92937.03;;;4.81;100.00
10202;BME280;5143;42.584;23.164;2023-02-28T01:41:15;92926.84;;;4.85;100.00
10202;BME280;5143;42.584;23.164;2023-02-28T01:44:03;92939.69;;;4.93;100.00
10202;BME280;5143;42.584;23.164;2023-02-28T01:46:31;92936.34;;;4.89;100.00
10202;BME280;5143;42.584;23.164;2023-02-28T01:49:02;92926.69;;;5.01;100.00
10202;BME280;5143;42.584;23.164;2023-02-28T01:51:36;92929.47;;;5.10;100.00
10202;BME280;5143;42.584;23.164;2023-02-28T01:54:08;92936.25;;;5.14;100.00
10202;BME280;5143;42.584;23.164;2023-02-28T01:56:44;92933.31;;;5.21;100.00
10202;BME280;5143;42.584;23.164;2023-02-28T01:59:16;92932.00;;;5.26;100.00
10202;BME280;5143;42.584;23.164;2023-02-28T02:01:45;92928.91;;;5.15;100.00
10202;BME280;5143;42.584;23.164;2023-02-28T02:04:12;92926.56;;;5.04;100.00
10202;BME280;5143;42.584;23.164;2023-02-28T02:06:43;92926.31;;;5.11;100.00
10202;BME280;5143;42.584;23.164;2023-02-28T02:09:11;92934.25;;;5.27;100.00
10202;BME280;5143;42.584;23.164;2023-02-28T02:11:42;92926.66;;;5.13;100.00
10202;BME280;5143;42.584;23.164;2023-02-28T02:17:10;92939.44;;;5.00;100.00
10202;BME280;5143;42.584;23.164;2023-02-28T02:23:08;92951.06;;;5.22;100.00
10202;BME280;5143;42.584;23.164;2023-02-28T02:25:43;92943.13;;;5.28;100.00
10202;BME280;5143;42.584;23.164;2023-02-28T02:31:21;92942.53;;;5.46;100.00
10202;BME280;5143;42.584;23.164;2023-02-28T02:34:36;92950.06;;;5.51;100.00
10202;BME280;5143;42.584;23.164;2023-02-28T02:37:21;92952.47;;;5.49;100.00
10202;BME280;5143;42.584;23.164;2023-02-28T02:39:59;92959.72;;;5.52;100.00
10202;BME280;5143;42.584;23.164;2023-02-28T02:42:34;92953.28;;;5.36;100.00
10202;BME280;5143;42.584;23.164;2023-02-28T02:45:07;92955.72;;;5.22;100.00
10202;BME280;5143;42.584;23.164;2023-02-28T02:47:37;92944.38;;;5.14;100.00
10202;BME280;5143;42.584;23.164;2023-02-28T02:50:11;92958.53;;;4.97;100.00
10202;BME280;5143;42.584;23.164;2023-02-28T02:52:42;92957.75;;;4.96;100.00
10202;BME280;5143;42.584;23.164;2023-02-28T02:55:14;92955.69;;;5.00;100.00
10202;BME280;5143;42.584;23.164;2023-02-28T02:57:46;92950.25;;;5.00;100.00
10202;BME280;5143;42.584;23.164;2023-02-28T03:00:16;92957.50;;;5.03;100.00
10202;BME280;5143;42.584;23.164;2023-02-28T03:02:45;92956.03;;;5.02;100.00
10202;BME280;5143;42.584;23.164;2023-02-28T03:05:19;92955.16;;;5.05;100.00
10202;BME280;5143;42.584;23.164;2023-02-28T03:07:46;92958.47;;;5.09;100.00
10202;BME280;5143;42.584;23.164;2023-02-28T03:10:31;92960.47;;;4.96;100.00
10202;BME280;5143;42.584;23.164;2023-02-28T03:13:11;92967.38;;;4.97;100.00
10202;BME280;5143;42.584;23.164;2023-02-28T03:15:49;92957.47;;;4.82;100.00
10202;BME280;5143;42.584;23.164;2023-02-28T03:18:24;92961.59;;;4.86;100.00
10202;BME280;5143;42.584;23.164;2023-02-28T03:21:06;92957.91;;;4.80;100.00
10202;BME280;5143;42.584;23.164;2023-02-28T03:23:39;92973.28;;;4.83;100.00
10202;BME280;5143;42.584;23.164;2023-02-28T03:26:13;92975.41;;;4.88;100.00
10202;BME280;5143;42.584;23.164;2023-02-28T03:28:51;92978.19;;;4.97;100.00
10202;BME280;5143;42.584;23.164;2023-02-28T03:31:24;92980.69;;;4.92;100.00
10202;BME280;5143;42.584;23.164;2023-02-28T03:33:59;92990.44;;;4.89;100.00
10202;BME280;5143;42.584;23.164;2023-02-28T03:36:32;92983.09;;;4.90;100.00
10202;BME280;5143;42.584;23.164;2023-02-28T03:39:04;92989.56;;;4.92;100.00
10202;BME280;5143;42.584;23.164;2023-02-28T03:41:36;92996.41;;;4.84;100.00
10202;BME280;5143;42.584;23.164;2023-02-28T03:44:07;92991.53;;;4.79;100.00
10202;BME280;5143;42.584;23.164;2023-02-28T03:46:44;92992.50;;;4.85;100.00
10202;BME280;5143;42.584;23.164;2023-02-28T03:49:17;92981.94;;;4.65;100.00
10202;BME280;5143;42.584;23.164;2023-02-28T03:51:47;92977.41;;;4.75;100.00
10202;BME280;5143;42.584;23.164;2023-02-28T03:54:17;92976.63;;;4.74;100.00
10202;BME280;5143;42.584;23.164;2023-02-28T03:56:48;92970.06;;;4.63;100.00
10202;BME280;5143;42.584;23.164;2023-02-28T03:59:20;92967.78;;;4.61;100.00
10202;BME280;5143;42.584;23.164;2023-02-28T04:01:49;92974.91;;;4.68;100.00
10202;BME280;5143;42.584;23.164;2023-02-28T04:04:17;92973.81;;;4.65;100.00
10202;BME280;5143;42.584;23.164;2023-02-28T04:06:44;92982.25;;;4.67;100.00
10202;BME280;5143;42.584;23.164;2023-02-28T04:09:14;92985.50;;;4.62;100.00
10202;BME280;5143;42.584;23.164;2023-02-28T04:11:42;92984.00;;;4.61;100.00
10202;BME280;5143;42.584;23.164;2023-02-28T04:14:11;92971.47;;;4.42;100.00
10202;BME280;5143;42.584;23.164;2023-02-28T04:16:40;92992.44;;;4.51;100.00
10202;BME280;5143;42.584;23.164;2023-02-28T04:19:08;92981.19;;;4.52;100.00
10202;BME280;5143;42.584;23.164;2023-02-28T04:21:37;92985.28;;;4.57;100.00
10202;BME280;5143;42.584;23.164;2023-02-28T04:24:05;92986.72;;;4.61;100.00
10202;BME280;5143;42.584;23.164;2023-02-28T04:26:35;92977.41;;;4.50;100.00
10202;BME280;5143;42.584;23.164;2023-02-28T04:29:03;92984.13;;;4.58;100.00
10202;BME280;5143;42.584;23.164;2023-02-28T04:31:31;92980.34;;;4.55;100.00
10202;BME280;5143;42.584;23.164;2023-02-28T04:33:57;92972.75;;;4.38;100.00
10202;BME280;5143;42.584;23.164;2023-02-28T04:36:24;92988.22;;;4.37;100.00
10202;BME280;5143;42.584;23.164;2023-02-28T04:38:52;92981.75;;;4.35;100.00
10202;BME280;5143;42.584;23.164;2023-02-28T04:41:18;92976.31;;;4.09;100.00
10202;BME280;5143;42.584;23.164;2023-02-28T04:43:47;93001.28;;;4.26;100.00
10202;BME280;5143;42.584;23.164;2023-02-28T04:46:13;92996.66;;;4.27;100.00
10202;BME280;5143;42.584;23.164;2023-02-28T04:48:40;92995.91;;;4.26;100.00
10202;BME280;5143;42.584;23.164;2023-02-28T04:51:11;93001.63;;;4.28;100.00
10202;BME280;5143;42.584;23.164;2023-02-28T04:53:40;93010.94;;;4.27;100.00
10202;BME280;5143;42.584;23.164;2023-02-28T04:56:08;93007.47;;;4.27;100.00
10202;BME280;5143;42.584;23.164;2023-02-28T04:58:36;93009.09;;;4.11;100.00
10202;BME280;5143;42.584;23.164;2023-02-28T05:01:06;93012.84;;;4.01;100.00
10202;BME280;5143;42.584;23.164;2023-02-28T05:03:38;93012.28;;;3.94;100.00
10202;BME280;5143;42.584;23.164;2023-02-28T05:06:06;93010.59;;;4.12;100.00
10202;BME280;5143;42.584;23.164;2023-02-28T05:08:33;93018.13;;;4.05;100.00
10202;BME280;5143;42.584;23.164;2023-02-28T05:10:59;93015.66;;;4.10;100.00
10202;BME280;5143;42.584;23.164;2023-02-28T05:13:27;93006.47;;;4.08;100.00
10202;BME280;5143;42.584;23.164;2023-02-28T05:15:54;93020.00;;;4.08;100.00
10202;BME280;5143;42.584;23.164;2023-02-28T05:18:22;93019.25;;;4.20;100.00
10202;BME280;5143;42.584;23.164;2023-02-28T05:20:49;93018.81;;;4.22;100.00
10202;BME280;5143;42.584;23.164;2023-02-28T05:23:17;93020.78;;;4.34;100.00
10202;BME280;5143;42.584;23.164;2023-02-28T05:25:44;93025.63;;;4.26;100.00
10202;BME280;5143;42.584;23.164;2023-02-28T05:28:10;93025.53;;;4.17;100.00
10202;BME280;5143;42.584;23.164;2023-02-28T05:30:37;93030.56;;;4.15;100.00
10202;BME280;5143;42.584;23.164;2023-02-28T05:33:04;93033.84;;;4.23;100.00
10202;BME280;5143;42.584;23.164;2023-02-28T05:35:32;93036.19;;;4.21;100.00
10202;BME280;5143;42.584;23.164;2023-02-28T05:37:58;93047.69;;;4.25;100.00
10202;BME280;5143;42.584;23.164;2023-02-28T05:40:25;93044.66;;;4.23;100.00
10202;BME280;5143;42.584;23.164;2023-02-28T05:42:52;93046.81;;;4.28;100.00
10202;BME280;5143;42.584;23.164;2023-02-28T05:45:19;93058.25;;;4.32;100.00
10202;BME280;5143;42.584;23.164;2023-02-28T05:47:45;93055.69;;;4.41;100.00
10202;BME280;5143;42.584;23.164;2023-02-28T05:50:12;93055.16;;;4.46;100.00
10202;BME280;5143;42.584;23.164;2023-02-28T05:52:40;93059.38;;;4.47;100.00
10202;BME280;5143;42.584;23.164;2023-02-28T05:55:08;93067.72;;;4.52;100.00
10202;BME280;5143;42.584;23.164;2023-02-28T05:57:35;93065.66;;;4.69;100.00
10202;BME280;5143;42.584;23.164;2023-02-28T06:00:02;93056.88;;;4.65;100.00
10202;BME280;5143;42.584;23.164;2023-02-28T06:02:30;93062.72;;;4.76;100.00
10202;BME280;5143;42.584;23.164;2023-02-28T06:04:57;93075.50;;;4.88;100.00
10202;BME280;5143;42.584;23.164;2023-02-28T06:07:23;93072.25;;;4.93;100.00
10202;BME280;5143;42.584;23.164;2023-02-28T06:09:51;93072.13;;;4.97;100.00
10202;BME280;5143;42.584;23.164;2023-02-28T06:12:18;93068.66;;;4.96;100.00
10202;BME280;5143;42.584;23.164;2023-02-28T06:14:45;93077.09;;;4.98;100.00
10202;BME280;5143;42.584;23.164;2023-02-28T06:17:11;93072.97;;;5.06;100.00
10202;BME280;5143;42.584;23.164;2023-02-28T06:19:38;93072.13;;;5.09;100.00
10202;BME280;5143;42.584;23.164;2023-02-28T06:22:06;93072.28;;;5.27;100.00
10202;BME280;5143;42.584;23.164;2023-02-28T06:24:33;93065.13;;;5.33;100.00
10202;BME280;5143;42.584;23.164;2023-02-28T06:27:01;93068.81;;;5.40;100.00
10202;BME280;5143;42.584;23.164;2023-02-28T06:29:30;93075.22;;;5.67;100.00
10202;BME280;5143;42.584;23.164;2023-02-28T06:31:57;93081.78;;;5.79;100.00
10202;BME280;5143;42.584;23.164;2023-02-28T06:34:24;93075.59;;;5.91;100.00
10202;BME280;5143;42.584;23.164;2023-02-28T06:36:51;93073.94;;;5.93;100.00
10202;BME280;5143;42.584;23.164;2023-02-28T06:39:18;93083.84;;;5.75;100.00
10202;BME280;5143;42.584;23.164;2023-02-28T06:41:45;93083.41;;;6.11;100.00
10202;BME280;5143;42.584;23.164;2023-02-28T06:44:16;93078.75;;;6.33;100.00
10202;BME280;5143;42.584;23.164;2023-02-28T06:46:44;93086.81;;;6.45;100.00
10202;BME280;5143;42.584;23.164;2023-02-28T06:49:11;93088.59;;;6.48;100.00
10202;BME280;5143;42.584;23.164;2023-02-28T06:51:40;93089.31;;;6.18;100.00
10202;BME280;5143;42.584;23.164;2023-02-28T06:54:07;93095.38;;;6.22;100.00
10202;BME280;5143;42.584;23.164;2023-02-28T06:56:34;93097.16;;;6.16;100.00
10202;BME280;5143;42.584;23.164;2023-02-28T06:59:01;93108.66;;;6.51;100.00
10202;BME280;5143;42.584;23.164;2023-02-28T07:01:30;93113.03;;;6.70;100.00
10202;BME280;5143;42.584;23.164;2023-02-28T07:03:58;93112.00;;;6.55;100.00
10202;BME280;5143;42.584;23.164;2023-02-28T07:06:26;93113.13;;;6.67;100.00
10202;BME280;5143;42.584;23.164;2023-02-28T07:08:54;93113.75;;;6.71;100.00
10202;BME280;5143;42.584;23.164;2023-02-28T07:11:21;93115.66;;;6.61;100.00
10202;BME280;5143;42.584;23.164;2023-02-28T07:13:51;93110.31;;;6.48;100.00
10202;BME280;5143;42.584;23.164;2023-02-28T07:16:17;93121.47;;;6.72;100.00
10202;BME280;5143;42.584;23.164;2023-02-28T07:18:46;93119.88;;;6.84;100.00
10202;BME280;5143;42.584;23.164;2023-02-28T07:21:13;93120.28;;;6.82;100.00
10202;BME280;5143;42.584;23.164;2023-02-28T07:23:40;93122.19;;;6.94;100.00
10202;BME280;5143;42.584;23.164;2023-02-28T07:26:10;93097.13;;;6.60;100.00
10202;BME280;5143;42.584;23.164;2023-02-28T07:28:38;93116.97;;;6.78;100.00
10202;BME280;5143;42.584;23.164;2023-02-28T07:31:05;93111.91;;;6.89;100.00
10202;BME280;5143;42.584;23.164;2023-02-28T07:33:32;93115.09;;;6.97;100.00
10202;BME280;5143;42.584;23.164;2023-02-28T07:36:03;93116.41;;;6.92;100.00
10202;BME280;5143;42.584;23.164;2023-02-28T07:38:30;93122.44;;;6.87;100.00
10202;BME280;5143;42.584;23.164;2023-02-28T07:40:57;93120.16;;;6.86;100.00
10202;BME280;5143;42.584;23.164;2023-02-28T07:43:24;93121.47;;;6.72;100.00
10202;BME280;5143;42.584;23.164;2023-02-28T07:45:50;93118.94;;;6.87;100.00
10202;BME280;5143;42.584;23.164;2023-02-28T07:48:17;93114.56;;;6.80;100.00
10202;BME280;5143;42.584;23.164;2023-02-28T07:50:44;93111.75;;;6.93;100.00
10202;BME280;5143;42.584;23.164;2023-02-28T07:53:14;93124.56;;;7.32;100.00
10202;BME280;5143;42.584;23.164;2023-02-28T07:55:41;93120.56;;;7.55;100.00
10202;BME280;5143;42.584;23.164;2023-02-28T07:58:08;93113.28;;;7.43;100.00
10202;BME280;5143;42.584;23.164;2023-02-28T08:00:35;93117.69;;;7.49;100.00
10202;BME280;5143;42.584;23.164;2023-02-28T08:03:01;93121.56;;;7.39;100.00
10202;BME280;5143;42.584;23.164;2023-02-28T08:05:29;93120.44;;;7.86;100.00
10202;BME280;5143;42.584;23.164;2023-02-28T08:07:56;93121.97;;;8.14;100.00
10202;BME280;5143;42.584;23.164;2023-02-28T08:10:24;93129.72;;;8.34;100.00
10202;BME280;5143;42.584;23.164;2023-02-28T08:12:51;93136.81;;;8.13;100.00
10202;BME280;5143;42.584;23.164;2023-02-28T08:15:18;93134.25;;;8.37;100.00
10202;BME280;5143;42.584;23.164;2023-02-28T08:17:44;93140.44;;;8.55;100.00
10202;BME280;5143;42.584;23.164;2023-02-28T08:20:12;93138.16;;;8.36;100.00
10202;BME280;5143;42.584;23.164;2023-02-28T08:22:38;93138.94;;;8.36;100.00
10202;BME280;5143;42.584;23.164;2023-02-28T08:25:06;93139.53;;;8.49;100.00
10202;BME280;5143;42.584;23.164;2023-02-28T08:27:35;93140.31;;;8.32;100.00
10202;BME280;5143;42.584;23.164;2023-02-28T08:30:03;93140.28;;;8.41;100.00
10202;BME280;5143;42.584;23.164;2023-02-28T08:32:32;93138.00;;;8.66;100.00
10202;BME280;5143;42.584;23.164;2023-02-28T08:34:59;93136.50;;;8.38;100.00
10202;BME280;5143;42.584;23.164;2023-02-28T08:37:27;93136.78;;;8.67;100.00
10202;BME280;5143;42.584;23.164;2023-02-28T08:39:53;93138.91;;;8.72;100.00
10202;BME280;5143;42.584;23.164;2023-02-28T08:42:20;93139.66;;;8.73;100.00
10202;BME280;5143;42.584;23.164;2023-02-28T08:44:48;93141.03;;;8.59;100.00
10202;BME280;5143;42.584;23.164;2023-02-28T08:47:15;93128.16;;;8.60;100.00
10202;BME280;5143;42.584;23.164;2023-02-28T08:49:42;93133.59;;;8.69;100.00
10202;BME280;5143;42.584;23.164;2023-02-28T08:52:09;93132.53;;;8.75;100.00
10202;BME280;5143;42.584;23.164;2023-02-28T08:54:35;93135.13;;;8.70;100.00
10202;BME280;5143;42.584;23.164;2023-02-28T08:57:02;93142.53;;;8.78;100.00
10202;BME280;5143;42.584;23.164;2023-02-28T08:59:30;93138.34;;;9.01;100.00
10202;BME280;5143;42.584;23.164;2023-02-28T09:01:58;93132.97;;;8.83;100.00
10202;BME280;5143;42.584;23.164;2023-02-28T09:04:25;93130.72;;;8.81;100.00
10202;BME280;5143;42.584;23.164;2023-02-28T09:06:51;93125.22;;;9.00;100.00
10202;BME280;5143;42.584;23.164;2023-02-28T09:09:18;93118.44;;;8.95;100.00
10202;BME280;5143;42.584;23.164;2023-02-28T09:11:45;93129.28;;;9.04;100.00
10202;BME280;5143;42.584;23.164;2023-02-28T09:14:12;93136.63;;;9.22;100.00
10202;BME280;5143;42.584;23.164;2023-02-28T09:16:38;93134.53;;;9.17;100.00
10202;BME280;5143;42.584;23.164;2023-02-28T09:19:10;93134.34;;;9.20;100.00
10202;BME280;5143;42.584;23.164;2023-02-28T09:21:37;93128.50;;;9.13;100.00
10202;BME280;5143;42.584;23.164;2023-02-28T09:24:04;93133.44;;;8.72;100.00
10202;BME280;5143;42.584;23.164;2023-02-28T09:26:31;93127.28;;;9.14;100.00
10202;BME280;5143;42.584;23.164;2023-02-28T09:28:59;93134.84;;;9.52;100.00
10202;BME280;5143;42.584;23.164;2023-02-28T09:31:28;93129.84;;;9.83;100.00
10202;BME280;5143;42.584;23.164;2023-02-28T09:33:56;93129.31;;;9.93;100.00
10202;BME280;5143;42.584;23.164;2023-02-28T09:36:26;93126.41;;;9.73;100.00
10202;BME280;5143;42.584;23.164;2023-02-28T09:38:53;93130.31;;;10.05;100.00
10202;BME280;5143;42.584;23.164;2023-02-28T09:41:22;93130.25;;;10.14;100.00
10202;BME280;5143;42.584;23.164;2023-02-28T09:43:52;93130.72;;;10.13;100.00
10202;BME280;5143;42.584;23.164;2023-02-28T09:46:32;93128.59;;;10.31;100.00
10202;BME280;5143;42.584;23.164;2023-02-28T09:49:02;93115.97;;;9.95;100.00
10202;BME280;5143;42.584;23.164;2023-02-28T09:51:40;93121.31;;;10.14;100.00
10202;BME280;5143;42.584;23.164;2023-02-28T09:54:13;93127.94;;;10.22;100.00
10202;BME280;5143;42.584;23.164;2023-02-28T09:56:45;93115.66;;;10.41;100.00
10202;BME280;5143;42.584;23.164;2023-02-28T09:59:28;93121.22;;;10.61;100.00
10202;BME280;5143;42.584;23.164;2023-02-28T10:02:02;93128.13;;;10.71;100.00
10202;BME280;5143;42.584;23.164;2023-02-28T10:04:42;93127.34;;;10.85;100.00
10202;BME280;5143;42.584;23.164;2023-02-28T10:07:21;93114.84;;;10.79;100.00
10202;BME280;5143;42.584;23.164;2023-02-28T10:09:57;93111.81;;;10.91;100.00
10202;BME280;5143;42.584;23.164;2023-02-28T10:12:27;93114.28;;;10.89;100.00
10202;BME280;5143;42.584;23.164;2023-02-28T10:14:58;93111.75;;;10.71;100.00
10202;BME280;5143;42.584;23.164;2023-02-28T10:17:34;93104.50;;;10.68;100.00
10202;BME280;5143;42.584;23.164;2023-02-28T10:20:09;93102.75;;;10.41;100.00
10202;BME280;5143;42.584;23.164;2023-02-28T10:22:48;93090.22;;;10.49;100.00
10202;BME280;5143;42.584;23.164;2023-02-28T10:25:19;93093.03;;;10.26;100.00
10202;BME280;5143;42.584;23.164;2023-02-28T10:27:47;93088.09;;;10.53;100.00
10202;BME280;5143;42.584;23.164;2023-02-28T10:30:14;93090.72;;;10.48;100.00
10202;BME280;5143;42.584;23.164;2023-02-28T10:32:49;93088.06;;;10.39;100.00
10202;BME280;5143;42.584;23.164;2023-02-28T10:35:18;93082.94;;;10.85;100.00
10202;BME280;5143;42.584;23.164;2023-02-28T10:37:49;93091.59;;;10.98;100.00
10202;BME280;5143;42.584;23.164;2023-02-28T10:40:29;93093.25;;;11.24;100.00
10202;BME280;5143;42.584;23.164;2023-02-28T10:42:57;93082.81;;;11.08;100.00
10202;BME280;5143;42.584;23.164;2023-02-28T10:45:25;93089.13;;;11.00;100.00
10202;BME280;5143;42.584;23.164;2023-02-28T10:47:55;93078.50;;;10.73;100.00
10202;BME280;5143;42.584;23.164;2023-02-28T10:50:42;93078.78;;;10.60;100.00
10202;BME280;5143;42.584;23.164;2023-02-28T10:53:30;93076.97;;;10.86;100.00
10202;BME280;5143;42.584;23.164;2023-02-28T10:56:00;93076.50;;;11.02;100.00
10202;BME280;5143;42.584;23.164;2023-02-28T10:58:29;93063.00;;;11.28;100.00
10202;BME280;5143;42.584;23.164;2023-02-28T11:00:57;93072.13;;;11.60;100.00
10202;BME280;5143;42.584;23.164;2023-02-28T11:03:29;93074.00;;;11.68;100.00
10202;BME280;5143;42.584;23.164;2023-02-28T11:05:57;93067.19;;;11.99;100.00
10202;BME280;5143;42.584;23.164;2023-02-28T11:08:25;93065.22;;;12.19;100.00
10202;BME280;5143;42.584;23.164;2023-02-28T11:10:56;93061.03;;;12.24;100.00
10202;BME280;5143;42.584;23.164;2023-02-28T11:13:29;93057.50;;;12.43;100.00
10202;BME280;5143;42.584;23.164;2023-02-28T11:15:59;93062.75;;;12.21;100.00
10202;BME280;5143;42.584;23.164;2023-02-28T11:18:29;93054.75;;;11.77;100.00
10202;BME280;5143;42.584;23.164;2023-02-28T11:20:59;93051.25;;;11.77;100.00
10202;BME280;5143;42.584;23.164;2023-02-28T11:23:30;93050.97;;;12.15;100.00
10202;BME280;5143;42.584;23.164;2023-02-28T11:26:01;93053.38;;;12.54;100.00
10202;BME280;5143;42.584;23.164;2023-02-28T11:28:32;93054.03;;;12.69;100.00
10202;BME280;5143;42.584;23.164;2023-02-28T11:31:05;93045.28;;;12.96;100.00
10202;BME280;5143;42.584;23.164;2023-02-28T11:33:40;93047.00;;;13.19;100.00
10202;BME280;5143;42.584;23.164;2023-02-28T11:36:11;93041.88;;;13.07;100.00
10202;BME280;5143;42.584;23.164;2023-02-28T11:38:40;93043.69;;;13.10;100.00
10202;BME280;5143;42.584;23.164;2023-02-28T11:41:21;93036.66;;;12.77;100.00
10202;BME280;5143;42.584;23.164;2023-02-28T11:44:05;93041.34;;;13.02;100.00
10202;BME280;5143;42.584;23.164;2023-02-28T11:46:40;93035.56;;;12.95;100.00
10202;BME280;5143;42.584;23.164;2023-02-28T11:49:21;93029.88;;;12.73;100.00
10202;BME280;5143;42.584;23.164;2023-02-28T11:51:53;93027.19;;;12.78;100.00
10202;BME280;5143;42.584;23.164;2023-02-28T11:54:29;93027.97;;;12.79;100.00
10202;BME280;5143;42.584;23.164;2023-02-28T11:57:00;93018.16;;;12.41;100.00
10202;BME280;5143;42.584;23.164;2023-02-28T11:59:47;93024.81;;;12.60;100.00
10202;BME280;5143;42.584;23.164;2023-02-28T12:02:25;93021.69;;;12.47;100.00
10202;BME280;5143;42.584;23.164;2023-02-28T12:05:11;93008.94;;;12.38;100.00
10202;BME280;5143;42.584;23.164;2023-02-28T12:07:49;93013.72;;;12.75;100.00
10202;BME280;5143;42.584;23.164;2023-02-28T12:10:22;93014.94;;;13.05;100.00
10202;BME280;5143;42.584;23.164;2023-02-28T12:13:03;93022.03;;;13.48;100.00
10202;BME280;5143;42.584;23.164;2023-02-28T12:16:05;93011.88;;;13.66;100.00
10202;BME280;5143;42.584;23.164;2023-02-28T12:18:51;93007.94;;;13.78;100.00
10202;BME280;5143;42.584;23.164;2023-02-28T12:21:30;93010.25;;;13.90;100.00
10202;BME280;5143;42.584;23.164;2023-02-28T12:24:12;93003.63;;;13.60;100.00
10202;BME280;5143;42.584;23.164;2023-02-28T12:26:46;92992.47;;;13.75;100.00
10202;BME280;5143;42.584;23.164;2023-02-28T12:29:19;92998.41;;;13.62;100.00
10202;BME280;5143;42.584;23.164;2023-02-28T12:31:49;93004.69;;;13.74;100.00
10202;BME280;5143;42.584;23.164;2023-02-28T12:34:22;92999.50;;;13.39;100.00
10202;BME280;5143;42.584;23.164;2023-02-28T12:36:51;93000.69;;;12.95;100.00
10202;BME280;5143;42.584;23.164;2023-02-28T12:39:23;93003.78;;;12.77;100.00
10202;BME280;5143;42.584;23.164;2023-02-28T12:41:57;92978.53;;;12.36;100.00
10202;BME280;5143;42.584;23.164;2023-02-28T12:44:30;92983.78;;;12.40;100.00
10202;BME280;5143;42.584;23.164;2023-02-28T12:47:02;92976.38;;;12.46;100.00
10202;BME280;5143;42.584;23.164;2023-02-28T12:49:33;92973.94;;;12.54;100.00
10202;BME280;5143;42.584;23.164;2023-02-28T12:52:02;92968.69;;;12.50;100.00
10202;BME280;5143;42.584;23.164;2023-02-28T12:54:36;92972.53;;;12.32;100.00
10202;BME280;5143;42.584;23.164;2023-02-28T12:57:11;92973.94;;;12.54;100.00
10202;BME280;5143;42.584;23.164;2023-02-28T12:59:43;92973.00;;;12.57;100.00
10202;BME280;5143;42.584;23.164;2023-02-28T13:05:52;92965.53;;;12.57;100.00
10202;BME280;5143;42.584;23.164;2023-02-28T13:09:02;92962.94;;;12.22;100.00
10202;BME280;5143;42.584;23.164;2023-02-28T13:11:32;92957.78;;;12.24;100.00
10202;BME280;5143;42.584;23.164;2023-02-28T13:14:04;92965.38;;;11.89;100.00
10202;BME280;5143;42.584;23.164;2023-02-28T13:17:00;92954.25;;;11.98;100.00
10202;BME280;5143;42.584;23.164;2023-02-28T13:19:30;92952.06;;;12.02;100.00
10202;BME280;5143;42.584;23.164;2023-02-28T13:21:57;92947.41;;;12.08;100.00
10202;BME280;5143;42.584;23.164;2023-02-28T13:24:45;92946.38;;;12.31;100.00
10202;BME280;5143;42.584;23.164;2023-02-28T13:27:37;92943.13;;;12.27;100.00